createdAt,value
2019-02-27T00:02:29.893Z,21.97
2019-02-27T00:08:34.136Z,23.40
2019-02-27T00:14:38.324Z,22.90
2019-02-27T00:20:42.636Z,22.42
2019-02-27T00:26:46.872Z,21.52
2019-02-27T00:32:51.840Z,21.00
2019-02-27T00:38:57.926Z,21.90
2019-02-27T00:45:02.164Z,22.93
2019-02-27T00:51:06.387Z,22.45
2019-02-27T00:57:10.986Z,22.60
2019-02-27T01:03:15.378Z,21.40
2019-02-27T01:09:19.596Z,23.10
2019-02-27T01:15:24.160Z,22.80
2019-02-27T01:21:28.366Z,23.62
2019-02-27T01:27:32.626Z,22.67
2019-02-27T01:33:38.133Z,21.82
2019-02-27T01:39:44.069Z,21.57
2019-02-27T01:45:48.790Z,21.62
2019-02-27T01:51:53.080Z,20.75
2019-02-27T01:57:57.442Z,20.52
2019-02-27T02:04:01.728Z,22.52
2019-02-27T02:10:06.170Z,21.82
2019-02-27T02:16:34.115Z,21.37
2019-02-27T02:23:14.172Z,21.27
2019-02-27T02:30:12.027Z,21.60
2019-02-27T02:36:45.767Z,21.00
2019-02-27T02:43:30.842Z,21.62
2019-02-27T02:50:17.459Z,21.05
2019-02-27T02:56:38.370Z,21.55
2019-02-27T03:03:16.879Z,21.50
2019-02-27T03:10:20.223Z,20.55
2019-02-27T03:16:45.072Z,21.20
2019-02-27T03:23:23.397Z,20.82
2019-02-27T03:30:14.166Z,21.50
2019-02-27T03:36:54.587Z,20.97
2019-02-27T03:43:36.871Z,20.70
2019-02-27T03:50:15.765Z,20.70
2019-02-27T03:56:52.202Z,19.17
2019-02-27T04:03:05.210Z,20.60
2019-02-27T04:09:10.081Z,20.60
2019-02-27T04:15:17.768Z,19.93
2019-02-27T04:21:25.089Z,22.50
2019-02-27T04:27:26.709Z,21.70
2019-02-27T04:33:31.108Z,20.10
2019-02-27T04:39:38.208Z,21.40
2019-02-27T04:45:43.919Z,23.40
2019-02-27T04:51:50.622Z,21.43
2019-02-27T04:57:54.414Z,21.57
2019-02-27T05:04:01.016Z,19.97
2019-02-27T05:10:07.324Z,22.93
2019-02-27T05:16:13.889Z,23.50
2019-02-27T05:22:17.307Z,22.43
2019-02-27T05:28:21.616Z,22.80
2019-02-27T05:34:25.970Z,22.97
2019-02-27T05:40:30.331Z,24.77
2019-02-27T05:46:35.732Z,25.30
2019-02-27T05:52:40.570Z,21.77
2019-02-27T05:58:44.845Z,21.50
2019-02-27T06:04:49.191Z,22.47
2019-02-27T06:10:56.022Z,21.93
2019-02-27T06:16:59.349Z,22.40
2019-02-27T06:23:04.500Z,23.63
2019-02-27T06:29:09.339Z,23.70
2019-02-27T06:35:13.913Z,22.80
2019-02-27T06:41:18.465Z,23.00
2019-02-27T06:47:22.741Z,24.17
2019-02-27T06:53:27.033Z,22.57
2019-02-27T06:59:31.403Z,20.70
2019-02-27T07:05:35.767Z,21.83
2019-02-27T07:11:39.969Z,22.17
2019-02-27T07:17:44.178Z,23.77
2019-02-27T07:23:48.438Z,20.30
2019-02-27T07:29:52.705Z,22.40
2019-02-27T07:35:56.989Z,19.40
2019-02-27T07:42:01.268Z,16.67
2019-02-27T07:48:05.566Z,15.83
2019-02-27T07:54:09.762Z,15.18
2019-02-27T08:00:16.414Z,14.68
2019-02-27T08:06:20.715Z,15.03
2019-02-27T08:12:24.893Z,15.68
2019-02-27T08:18:30.578Z,14.78
2019-02-27T08:24:35.330Z,15.10
2019-02-27T08:30:39.862Z,14.75
2019-02-27T08:36:44.060Z,14.20
2019-02-27T08:42:48.408Z,14.38
2019-02-27T08:48:52.594Z,16.35
2019-02-27T08:54:56.931Z,15.48
2019-02-27T09:01:01.960Z,14.90
2019-02-27T09:07:06.217Z,14.78
2019-02-27T09:13:10.498Z,14.20
2019-02-27T09:25:23.532Z,13.70
2019-02-27T09:31:24.924Z,14.58
2019-02-27T09:37:29.351Z,13.28
2019-02-27T09:43:33.559Z,13.83
2019-02-27T09:49:38.016Z,13.75
2019-02-27T09:55:43.794Z,14.53
2019-02-27T10:01:47.993Z,14.47
2019-02-27T10:07:52.206Z,15.20
2019-02-27T10:13:56.458Z,15.15
2019-02-27T10:20:02.481Z,15.23
2019-02-27T10:26:06.618Z,14.78
2019-02-27T10:32:11.307Z,14.78
2019-02-27T10:38:15.630Z,15.25
2019-02-27T10:44:19.907Z,16.15
2019-02-27T10:50:24.172Z,15.00
2019-02-27T10:56:28.531Z,15.48
2019-02-27T11:02:33.045Z,16.32
2019-02-27T11:08:37.421Z,15.35
2019-02-27T11:14:41.647Z,18.82
2019-02-27T11:20:45.909Z,17.90
2019-02-27T11:26:50.171Z,16.82
2019-02-27T11:32:57.041Z,15.30
2019-02-27T11:39:00.319Z,16.05
2019-02-27T11:45:04.936Z,19.32
2019-02-27T11:51:09.212Z,20.62
2019-02-27T11:57:13.437Z,18.60
2019-02-27T12:03:17.902Z,21.12
2019-02-27T12:09:22.398Z,19.98
2019-02-27T12:15:27.303Z,19.95
2019-02-27T12:21:31.716Z,20.17
2019-02-27T12:27:48.669Z,20.55
2019-02-27T12:33:41.830Z,20.00
2019-02-27T12:39:47.239Z,15.63
2019-02-27T12:45:52.113Z,21.10
2019-02-27T12:51:56.304Z,17.62
2019-02-27T12:58:00.611Z,19.80
2019-02-27T13:04:04.832Z,19.48
2019-02-27T13:10:13.292Z,14.83
2019-02-27T13:16:17.598Z,21.30
2019-02-27T13:22:21.811Z,18.45
2019-02-27T13:28:26.073Z,19.80
2019-02-27T13:34:30.374Z,11.50
2019-02-27T13:40:35.677Z,18.30
2019-02-27T13:46:40.585Z,13.85
2019-02-27T13:52:49.885Z,14.45
2019-02-27T13:58:50.745Z,15.72
2019-02-27T14:04:57.302Z,13.78
2019-02-27T14:11:01.232Z,16.12
2019-02-27T14:17:07.634Z,14.98
2019-02-27T14:23:11.985Z,14.20
2019-02-27T14:29:17.438Z,16.23
2019-02-27T14:35:21.741Z,13.80
2019-02-27T14:41:25.969Z,16.62
2019-02-27T14:47:30.277Z,21.33
2019-02-27T14:53:34.477Z,15.60
2019-02-27T14:59:38.856Z,17.25
2019-02-27T15:05:45.083Z,18.85
2019-02-27T15:11:49.173Z,21.60
2019-02-27T15:17:54.695Z,18.75
2019-02-27T15:24:01.402Z,18.27
2019-02-27T15:30:05.703Z,22.77
2019-02-27T15:36:09.919Z,20.85
2019-02-27T15:42:16.108Z,15.83
2019-02-27T15:48:20.261Z,19.40
2019-02-27T15:54:24.876Z,16.67
2019-02-27T16:00:29.682Z,25.97
2019-02-27T16:06:33.962Z,23.55
2019-02-27T16:12:38.208Z,17.57
2019-02-27T16:18:42.484Z,21.82
2019-02-27T16:24:46.696Z,24.45
2019-02-27T16:30:50.892Z,22.70
2019-02-27T16:36:55.119Z,22.50
2019-02-27T16:42:59.356Z,23.40
2019-02-27T16:49:03.868Z,22.60
2019-02-27T16:55:09.982Z,22.90
2019-02-27T17:01:14.373Z,22.67
2019-02-27T17:07:18.816Z,23.18
2019-02-27T17:13:23.403Z,23.98
2019-02-27T17:19:28.836Z,25.12
2019-02-27T17:25:33.130Z,23.90
2019-02-27T17:31:37.614Z,26.23
2019-02-27T17:37:41.918Z,24.10
2019-02-27T17:43:46.214Z,23.57
2019-02-27T17:49:50.606Z,28.35
2019-02-27T17:55:54.798Z,30.37
2019-02-27T18:01:59.364Z,33.13
2019-02-27T18:08:03.784Z,34.13
2019-02-27T18:14:09.901Z,32.63
2019-02-27T18:20:14.427Z,33.13
2019-02-27T18:26:18.798Z,33.85
2019-02-27T18:32:23.104Z,36.40
2019-02-27T18:38:28.401Z,36.85
2019-02-27T18:44:32.803Z,36.77
2019-02-27T18:50:37.121Z,38.65
2019-02-27T18:56:41.979Z,38.10
2019-02-27T19:02:46.463Z,36.63
2019-02-27T19:08:51.869Z,38.40
2019-02-27T19:14:56.137Z,36.60
2019-02-27T19:21:00.457Z,37.95
2019-02-27T19:27:04.821Z,37.78
2019-02-27T19:33:09.162Z,39.48
2019-02-27T19:39:13.615Z,41.15
2019-02-27T19:45:18.039Z,38.02
2019-02-27T19:51:22.416Z,37.45
2019-02-27T19:57:26.710Z,37.15
2019-02-27T20:03:34.783Z,37.75
2019-02-27T20:09:37.054Z,37.45
2019-02-27T20:15:42.717Z,36.50
2019-02-27T20:21:47.923Z,36.05
2019-02-27T20:27:52.432Z,38.92
2019-02-27T20:33:56.791Z,36.23
2019-02-27T20:40:01.123Z,34.98
2019-02-27T20:46:05.686Z,34.33
2019-02-27T20:52:14.658Z,36.53
2019-02-27T20:58:17.405Z,34.98
2019-02-27T21:04:22.132Z,36.15
2019-02-27T21:10:26.764Z,34.92
2019-02-27T21:16:31.243Z,38.02
2019-02-27T21:22:35.551Z,38.02
2019-02-27T21:28:39.930Z,36.23
2019-02-27T21:34:44.203Z,39.55
2019-02-27T21:40:48.565Z,50.28
2019-02-27T21:46:52.838Z,50.30
2019-02-27T21:52:57.040Z,40.58
2019-02-27T21:59:04.779Z,37.10
2019-02-27T22:05:07.907Z,36.15
2019-02-27T22:11:12.301Z,37.80
2019-02-27T22:17:16.515Z,38.28
2019-02-27T22:23:20.877Z,39.83
2019-02-27T22:29:25.210Z,36.83
2019-02-27T22:35:31.096Z,36.55
2019-02-27T22:41:35.365Z,37.10
2019-02-27T22:47:39.629Z,37.45
2019-02-27T22:53:43.838Z,36.90
2019-02-27T22:59:48.084Z,45.15
2019-02-27T23:05:52.617Z,39.15
2019-02-27T23:11:56.983Z,38.08
2019-02-27T23:18:05.905Z,37.60
2019-02-27T23:24:10.988Z,35.65
2019-02-27T23:30:16.122Z,37.25
2019-02-27T23:36:22.100Z,39.83
2019-02-27T23:42:27.847Z,38.05
2019-02-27T23:48:35.820Z,39.83
2019-02-27T23:54:38.474Z,36.23
